Terminal Aerodrome Forecast
Issued by NWS

Current Version | Previous Version | Graphics & Text | Print | Product List | Glossary On
Versions: 1 2 3 4 5 6 7 8 9 10 11 12 13 14 15 16 17 18
685
FTUS41 KPBZ 231007 AAD
TAFMGW
TAF AMD
KMGW 231007Z 2310/2406 20005KT P6SM BKN040
     FM231200 22008KT P6SM SCT008 BKN015
      TEMPO 2312/2315 BKN008
     FM231900 22008KT P6SM BKN025
     FM240200 17003KT P6SM BKN035=

USA.gov is the U.S. government's official web portal to all federal, state and local government web resources and services.